Time;durP1;ratioP1;P1;durP2;ratioP2;P2;SDS_P1;SDS_P2;PMS_P1;PMS_P2;Temp;Humidity;BMP_temperature;BMP_pressure;BME280_temperature;BME280_humidity;BME280_pressure;Samples;Min_cycle;Max_cycle;Signal;HPM_P1;HPM_P2
2023/12/24 00:01:13;;;;;;;4.97;3.80;;;;;;;0.31;94.16;99882.06;4931838;29;20422;-74
2023/12/24 00:03:40;;;;;;;5.38;3.72;;;;;;;0.26;94.23;99891.28;4932881;29;20061;-73
2023/12/24 00:06:08;;;;;;;4.65;3.50;;;;;;;0.35;94.24;99885.41;4935028;29;20058;-73
2023/12/24 00:08:35;;;;;;;4.40;3.22;;;;;;;0.31;93.84;99884.75;4935675;29;20067;-73
2023/12/24 00:11:02;;;;;;;4.97;3.80;;;;;;;0.40;94.28;99878.84;4932433;28;20130;-73
2023/12/24 00:13:29;;;;;;;5.00;3.90;;;;;;;0.30;93.48;99875.03;4935551;29;20107;-73
2023/12/24 00:15:55;;;;;;;4.18;3.58;;;;;;;0.16;93.96;99880.31;4934671;29;20080;-73
2023/12/24 00:18:22;;;;;;;5.40;3.75;;;;;;;-0.07;93.84;99880.78;4934929;29;20079;-73
2023/12/24 00:20:48;;;;;;;4.45;3.60;;;;;;;-0.20;93.95;99883.28;4935362;29;20040;-74
2023/12/24 00:23:15;;;;;;;5.47;3.70;;;;;;;-0.25;94.71;99880.06;4918567;29;20131;-74
2023/12/24 00:25:42;;;;;;;4.97;3.83;;;;;;;-0.33;95.38;99880.50;4935378;29;20497;-73
2023/12/24 00:28:09;;;;;;;4.78;4.00;;;;;;;-0.34;95.18;99870.78;4934672;29;20135;-74
2023/12/24 00:30:36;;;;;;;5.32;4.05;;;;;;;-0.32;95.79;99873.34;4934720;29;20052;-73
2023/12/24 00:33:03;;;;;;;6.80;4.10;;;;;;;-0.11;94.67;99877.44;4918057;29;20116;-74
2023/12/24 00:35:31;;;;;;;6.38;4.57;;;;;;;-0.20;95.22;99867.31;4935174;29;20051;-74
2023/12/24 00:37:58;;;;;;;5.85;4.20;;;;;;;-0.22;95.42;99869.22;4933757;29;20043;-72
2023/12/24 00:40:25;;;;;;;7.00;5.05;;;;;;;-0.23;95.05;99872.81;4935077;29;20130;-73
2023/12/24 00:42:53;;;;;;;6.68;4.75;;;;;;;-0.34;95.90;99867.25;4934624;29;20450;-73
2023/12/24 00:45:20;;;;;;;6.90;4.82;;;;;;;-0.27;95.71;99868.59;4935356;29;20072;-74
2023/12/24 00:47:48;;;;;;;7.25;5.47;;;;;;;-0.34;95.79;99869.91;4935071;29;20111;-74
2023/12/24 00:50:15;;;;;;;6.57;4.95;;;;;;;-0.27;95.82;99876.59;4934881;29;20054;-74
2023/12/24 00:52:41;;;;;;;6.28;4.97;;;;;;;-0.29;95.75;99870.50;4918064;29;20047;-74
2023/12/24 00:55:11;;;;;;;5.13;4.05;;;;;;;-0.26;95.92;99862.31;4916514;29;20124;-74
2023/12/24 00:57:37;;;;;;;5.28;4.00;;;;;;;-0.35;95.44;99869.06;4915944;29;20052;-75
2023/12/24 01:00:05;;;;;;;5.43;4.13;;;;;;;-0.30;95.43;99860.78;4914920;29;20104;-74
2023/12/24 01:02:32;;;;;;;6.03;4.35;;;;;;;-0.33;95.77;99871.63;4915550;29;20048;-73
2023/12/24 01:04:59;;;;;;;5.88;4.65;;;;;;;-0.34;95.34;99860.13;4915079;29;20066;-75
2023/12/24 01:07:26;;;;;;;5.47;4.03;;;;;;;-0.36;95.94;99859.31;4915112;29;20494;-75
2023/12/24 01:09:52;;;;;;;6.55;4.68;;;;;;;-0.39;95.46;99858.66;4916043;29;20132;-76
2023/12/24 01:12:19;;;;;;;9.68;5.78;;;;;;;-0.52;95.82;99846.03;4916030;29;20111;-76
2023/12/24 01:14:46;;;;;;;7.15;5.03;;;;;;;-0.51;95.79;99847.75;4915284;29;20044;-77
2023/12/24 01:17:13;;;;;;;8.73;5.43;;;;;;;-0.56;95.78;99855.13;4915453;29;20112;-75
2023/12/24 01:19:40;;;;;;;8.45;5.72;;;;;;;-0.53;95.97;99848.81;4915208;29;20511;-77
2023/12/24 01:22:07;;;;;;;7.10;4.88;;;;;;;-0.54;96.05;99847.91;4914995;29;20151;-76
2023/12/24 01:24:34;;;;;;;8.70;6.05;;;;;;;-0.51;96.16;99857.56;4915253;29;20398;-76
2023/12/24 01:27:01;;;;;;;8.98;6.40;;;;;;;-0.45;95.78;99852.72;4915381;29;20123;-75
2023/12/24 01:29:27;;;;;;;9.55;6.47;;;;;;;-0.49;96.53;99848.53;4898953;29;20040;-75
2023/12/24 01:31:54;;;;;;;9.45;6.82;;;;;;;-0.41;96.16;99852.56;4915960;29;20552;-75
2023/12/24 01:34:20;;;;;;;11.73;6.32;;;;;;;-0.35;96.26;99841.53;4916185;29;20059;-76
2023/12/24 01:36:47;;;;;;;8.25;5.65;;;;;;;-0.49;96.16;99845.00;4915943;29;20044;-76
2023/12/24 01:39:15;;;;;;;8.07;5.28;;;;;;;-0.49;96.34;99840.53;4915918;29;20067;-75
2023/12/24 01:41:43;;;;;;;8.75;6.03;;;;;;;-0.46;96.09;99840.34;4915420;29;20584;-75
2023/12/24 01:44:10;;;;;;;9.75;6.25;;;;;;;-0.56;96.53;99835.63;4915094;29;20112;-75
2023/12/24 01:46:37;;;;;;;7.75;4.75;;;;;;;-0.67;96.39;99830.91;4914744;29;20477;-75
2023/12/24 01:49:04;;;;;;;7.47;5.30;;;;;;;-0.68;96.50;99825.69;4914808;29;20060;-76
2023/12/24 01:51:31;;;;;;;8.20;6.03;;;;;;;-0.64;96.98;99830.72;4914795;29;20078;-76
2023/12/24 01:53:58;;;;;;;8.32;5.60;;;;;;;-0.69;96.62;99827.50;4923294;29;20162;-76
2023/12/24 01:56:30;;;;;;;9.43;5.75;;;;;;;-0.79;96.95;99828.97;4933713;29;20420;-73
2023/12/24 01:58:57;;;;;;;9.60;6.05;;;;;;;-0.86;97.39;99831.09;4933565;29;20047;-73
2023/12/24 02:01:26;;;;;;;9.68;6.10;;;;;;;-0.81;97.37;99822.88;4933366;29;20054;-72
2023/12/24 02:03:53;;;;;;;10.98;6.43;;;;;;;-0.77;97.62;99824.41;4934053;29;20067;-74
2023/12/24 02:10:08;;;;;;;12.18;6.75;;;;;;;-0.66;97.63;99815.78;4932143;29;20484;-75
2023/12/24 02:12:38;;;;;;;12.13;6.65;;;;;;;-0.70;97.18;99808.94;4916073;29;20211;-75
2023/12/24 02:15:05;;;;;;;12.93;6.82;;;;;;;-0.67;97.83;99812.28;4932485;29;20169;-75
2023/12/24 02:17:33;;;;;;;10.95;6.43;;;;;;;-0.73;97.54;99809.94;4932598;29;20534;-76
2023/12/24 02:20:00;;;;;;;11.65;7.18;;;;;;;-0.76;97.29;99799.47;4932429;29;20445;-73
2023/12/24 02:22:27;;;;;;;11.50;6.32;;;;;;;-0.69;97.87;99803.53;4931887;29;20527;-74
2023/12/24 02:24:55;;;;;;;10.48;6.38;;;;;;;-0.69;97.92;99800.88;4931800;29;20051;-75
2023/12/24 02:27:25;;;;;;;14.40;6.78;;;;;;;-0.75;98.23;99802.06;4932465;29;20051;-74
2023/12/24 02:29:58;;;;;;;11.02;6.28;;;;;;;-0.80;98.05;99797.94;4931976;29;20090;-75
2023/12/24 02:32:25;;;;;;;10.90;6.22;;;;;;;-0.76;98.31;99794.16;4931753;29;20450;-72
2023/12/24 02:34:55;;;;;;;10.18;5.80;;;;;;;-0.75;98.43;99803.84;4932760;29;20139;-74
2023/12/24 02:37:22;;;;;;;9.35;5.60;;;;;;;-0.82;98.42;99802.47;4932420;29;20055;-73
2023/12/24 02:39:49;;;;;;;12.60;5.15;;;;;;;-0.74;98.60;99795.78;4931333;29;20043;-75
2023/12/24 02:42:15;;;;;;;9.95;5.60;;;;;;;-0.74;98.25;99797.59;4931679;29;20055;-73
2023/12/24 02:44:43;;;;;;;10.10;4.80;;;;;;;-0.66;98.48;99806.00;4914970;29;20114;-74
2023/12/24 02:47:09;;;;;;;7.97;4.70;;;;;;;-0.59;98.51;99796.72;4931849;29;20059;-73
2023/12/24 02:49:36;;;;;;;10.38;5.40;;;;;;;-0.68;98.25;99780.41;4932413;29;20067;-73
2023/12/24 02:52:04;;;;;;;8.23;4.15;;;;;;;-0.67;97.98;99772.34;4931248;29;20055;-73
2023/12/24 02:54:30;;;;;;;9.00;4.72;;;;;;;-0.78;97.96;99770.28;4919404;29;20048;-75
2023/12/24 02:56:57;;;;;;;8.93;5.05;;;;;;;-0.75;98.26;99774.56;4913099;29;20573;-73
2023/12/24 02:59:26;;;;;;;7.05;4.15;;;;;;;-0.69;98.56;99763.59;4913535;29;20067;-76
2023/12/24 03:01:52;;;;;;;6.75;4.20;;;;;;;-0.62;98.90;99762.28;4912761;29;20523;-73
2023/12/24 03:04:19;;;;;;;6.20;3.70;;;;;;;-0.69;98.47;99763.59;4912664;29;20083;-75
2023/12/24 03:06:46;;;;;;;7.53;4.13;;;;;;;-0.60;98.83;99747.06;4912576;29;20083;-73
2023/12/24 03:09:12;;;;;;;5.43;3.58;;;;;;;-0.62;98.45;99748.13;4912528;29;20050;-75
2023/12/24 03:11:39;;;;;;;5.00;3.25;;;;;;;-0.69;98.63;99746.75;4912681;29;20115;-74
2023/12/24 03:14:05;;;;;;;5.68;3.83;;;;;;;-0.69;98.42;99744.94;4911989;29;20059;-75
2023/12/24 03:16:32;;;;;;;9.20;4.13;;;;;;;-0.73;99.12;99740.72;4912262;29;20079;-77
2023/12/24 03:18:59;;;;;;;6.90;4.07;;;;;;;-0.79;98.96;99741.09;4911975;29;20052;-75
2023/12/24 03:21:26;;;;;;;7.03;4.13;;;;;;;-0.76;98.84;99740.91;4912648;29;20048;-74
2023/12/24 03:23:53;;;;;;;9.52;5.20;;;;;;;-0.75;99.08;99732.84;4912878;29;20095;-74
2023/12/24 03:26:23;;;;;;;9.10;4.88;;;;;;;-0.65;99.02;99732.31;4912398;29;20056;-74
2023/12/24 03:28:51;;;;;;;9.48;5.25;;;;;;;-0.64;99.23;99726.88;4912964;29;20051;-74
2023/12/24 03:31:18;;;;;;;10.60;5.35;;;;;;;-0.69;98.88;99723.66;4912606;29;20095;-75
2023/12/24 03:33:45;;;;;;;8.73;5.38;;;;;;;-0.71;99.14;99712.22;4911881;29;20529;-74
2023/12/24 03:36:11;;;;;;;13.60;6.13;;;;;;;-0.66;99.08;99711.94;4912971;29;20063;-75
2023/12/24 03:38:38;;;;;;;10.45;5.50;;;;;;;-0.68;99.09;99712.03;4915481;29;20080;-75
2023/12/24 03:41:05;;;;;;;13.13;6.22;;;;;;;-0.61;99.20;99712.56;4916606;29;20055;-74
2023/12/24 03:43:33;;;;;;;11.18;6.07;;;;;;;-0.61;99.25;99701.91;4916142;29;20052;-74
2023/12/24 03:45:59;;;;;;;11.98;5.72;;;;;;;-0.63;99.25;99706.44;4915608;29;20056;-75
2023/12/24 03:48:27;;;;;;;9.35;5.53;;;;;;;-0.61;99.50;99702.75;4916062;29;20056;-76
2023/12/24 03:50:54;;;;;;;8.32;4.65;;;;;;;-0.59;99.83;99711.50;4915949;29;20047;-74
2023/12/24 03:53:21;;;;;;;8.88;4.70;;;;;;;-0.60;99.66;99703.63;4916737;29;20100;-75
2023/12/24 03:55:48;;;;;;;6.65;4.40;;;;;;;-0.62;99.68;99701.03;4915946;29;20055;-76
2023/12/24 03:58:15;;;;;;;6.90;4.22;;;;;;;-0.61;99.53;99696.56;4916126;29;20108;-75
2023/12/24 04:00:41;;;;;;;8.27;4.85;;;;;;;-0.66;99.32;99694.16;4915259;29;20465;-77
2023/12/24 04:03:08;;;;;;;8.23;4.93;;;;;;;-0.62;99.71;99695.72;4915591;29;20572;-75
2023/12/24 04:05:35;;;;;;;11.20;4.85;;;;;;;-0.61;99.48;99686.78;4915748;29;20048;-76
2023/12/24 04:08:03;;;;;;;7.30;4.78;;;;;;;-0.59;99.89;99681.34;4915388;29;20052;-77
2023/12/24 04:10:31;;;;;;;7.60;4.40;;;;;;;-0.61;99.80;99681.44;4915435;29;20126;-77
2023/12/24 04:13:03;;;;;;;9.30;5.03;;;;;;;-0.57;99.69;99676.78;4915571;29;20107;-76
2023/12/24 04:15:30;;;;;;;7.80;5.10;;;;;;;-0.55;99.50;99681.06;4915655;29;20048;-76
2023/12/24 04:17:58;;;;;;;8.02;5.15;;;;;;;-0.54;99.94;99676.59;4916128;29;20048;-76
2023/12/24 04:20:24;;;;;;;9.77;5.40;;;;;;;-0.53;99.87;99673.00;4915806;29;20402;-75
2023/12/24 04:22:51;;;;;;;8.75;5.68;;;;;;;-0.49;99.69;99669.22;4916090;29;20487;-75
2023/12/24 04:25:18;;;;;;;8.55;5.78;;;;;;;-0.53;100.00;99655.22;4913907;29;20074;-75
2023/12/24 04:27:44;;;;;;;7.40;5.57;;;;;;;-0.47;99.53;99654.84;4915318;29;20068;-76
2023/12/24 04:30:11;;;;;;;8.23;5.20;;;;;;;-0.39;99.88;99650.88;4916017;29;20052;-76
2023/12/24 04:32:38;;;;;;;7.13;5.57;;;;;;;-0.46;99.74;99650.38;4915045;29;20442;-76
2023/12/24 04:35:09;;;;;;;8.63;5.47;;;;;;;-0.43;99.87;99648.41;4915373;29;20060;-76
2023/12/24 04:37:36;;;;;;;6.95;5.25;;;;;;;-0.40;100.00;99638.50;4913734;29;20512;-76
2023/12/24 04:40:04;;;;;;;9.70;5.63;;;;;;;-0.43;99.72;99639.53;4913518;29;20052;-76
2023/12/24 04:42:31;;;;;;;16.63;5.72;;;;;;;-0.40;100.00;99644.69;4915156;29;20112;-76
2023/12/24 04:44:57;;;;;;;8.07;5.57;;;;;;;-0.46;99.64;99626.38;4914935;29;20052;-76
2023/12/24 04:47:24;;;;;;;6.50;5.03;;;;;;;-0.41;99.64;99639.44;4911025;29;20052;-74
2023/12/24 04:49:51;;;;;;;7.90;5.38;;;;;;;-0.36;100.00;99632.88;4895744;29;20048;-76
2023/12/24 04:52:17;;;;;;;7.80;5.75;;;;;;;-0.33;100.00;99637.19;4896183;29;20108;-77
2023/12/24 04:54:44;;;;;;;6.57;5.30;;;;;;;-0.12;99.93;99635.00;4881673;29;20615;-76
2023/12/24 04:57:10;;;;;;;10.45;6.00;;;;;;;-0.25;99.83;99632.25;4877697;29;20161;-74
2023/12/24 04:59:37;;;;;;;8.32;5.78;;;;;;;-0.12;99.87;99640.34;4876898;29;20429;-74
2023/12/24 05:02:04;;;;;;;7.28;5.63;;;;;;;-0.08;99.65;99642.69;4877285;29;20199;-77
2023/12/24 05:04:32;;;;;;;8.52;6.43;;;;;;;-0.14;99.38;99640.44;4877341;29;20417;-74
2023/12/24 05:06:59;;;;;;;8.23;6.47;;;;;;;-0.17;99.62;99637.94;4877160;29;20455;-73
2023/12/24 05:09:26;;;;;;;9.02;6.45;;;;;;;-0.10;99.73;99627.75;4877110;29;20517;-74
2023/12/24 05:11:52;;;;;;;9.63;6.88;;;;;;;-0.10;100.00;99622.44;4877737;29;20105;-74
2023/12/24 05:14:20;;;;;;;8.77;6.60;;;;;;;-0.08;99.84;99620.53;4877600;29;20110;-74
2023/12/24 05:16:46;;;;;;;10.90;7.22;;;;;;;-0.08;99.81;99624.03;4877580;29;20128;-77
2023/12/24 05:19:13;;;;;;;10.50;7.63;;;;;;;-0.06;99.70;99623.97;4876831;29;20072;-74
2023/12/24 05:21:39;;;;;;;13.25;7.53;;;;;;;-0.05;100.00;99626.53;4876590;29;20084;-76
2023/12/24 05:24:06;;;;;;;11.70;8.35;;;;;;;-0.04;99.59;99625.59;4876976;29;20060;-77
2023/12/24 05:26:33;;;;;;;11.10;8.23;;;;;;;0.04;99.99;99619.78;4877151;29;20498;-75
2023/12/24 05:28:59;;;;;;;11.57;8.23;;;;;;;0.08;99.75;99616.81;4877081;29;20060;-75
2023/12/24 05:31:26;;;;;;;12.30;8.32;;;;;;;0.13;99.85;99609.38;4876631;29;20049;-75
2023/12/24 05:33:53;;;;;;;10.75;8.25;;;;;;;0.22;100.00;99610.63;4877840;29;20459;-75
2023/12/24 05:36:20;;;;;;;11.90;8.13;;;;;;;0.30;100.00;99615.44;4881196;29;20045;-75
2023/12/24 05:38:47;;;;;;;12.90;8.38;;;;;;;0.36;100.00;99609.72;4876863;29;20053;-75
2023/12/24 05:41:15;;;;;;;13.38;8.82;;;;;;;0.42;100.00;99604.00;4876663;29;20060;-75
2023/12/24 05:43:42;;;;;;;12.77;8.95;;;;;;;0.50;100.00;99595.50;4876649;29;20136;-75
2023/12/24 05:46:13;;;;;;;13.50;9.00;;;;;;;0.64;100.00;99592.78;4874848;29;20061;-75
2023/12/24 05:48:40;;;;;;;14.85;9.13;;;;;;;0.73;100.00;99596.66;4903426;29;20523;-75
2023/12/24 05:51:07;;;;;;;16.63;9.13;;;;;;;0.81;100.00;99583.69;4913925;29;20072;-75
2023/12/24 05:53:34;;;;;;;12.40;8.85;;;;;;;0.83;99.74;99587.09;4913916;29;20529;-75
2023/12/24 05:56:00;;;;;;;14.25;8.52;;;;;;;0.93;99.87;99586.38;4913896;29;20052;-74
2023/12/24 05:58:27;;;;;;;15.27;9.38;;;;;;;1.03;99.84;99591.09;4914214;29;20417;-74
2023/12/24 06:00:54;;;;;;;16.00;9.15;;;;;;;1.00;99.82;99584.16;4913520;29;20105;-75
2023/12/24 06:03:20;;;;;;;14.25;9.20;;;;;;;1.07;100.00;99580.13;4914091;29;20044;-75
2023/12/24 06:05:47;;;;;;;15.30;8.73;;;;;;;1.11;100.00;99586.94;4913324;29;20086;-74
2023/12/24 06:08:16;;;;;;;14.55;9.02;;;;;;;1.24;99.85;99579.84;4913814;29;20048;-76
2023/12/24 06:10:43;;;;;;;15.20;9.25;;;;;;;1.28;100.00;99575.97;4913357;29;20052;-75
2023/12/24 06:13:10;;;;;;;15.35;8.98;;;;;;;1.35;99.66;99580.91;4913763;29;20086;-75
2023/12/24 06:15:37;;;;;;;17.35;9.93;;;;;;;1.45;99.74;99584.66;4913071;29;20058;-76
2023/12/24 06:18:08;;;;;;;15.15;9.68;;;;;;;1.47;100.00;99574.72;4913567;29;20103;-74
2023/12/24 06:20:37;;;;;;;;;;;;;;;1.46;99.78;99570.34;4913745;29;20044;-75
2023/12/24 06:23:04;;;;;;;21.25;11.13;;;;;;;1.48;99.93;99571.09;4913156;29;20013;-75
2023/12/24 06:25:30;;;;;;;24.67;13.40;;;;;;;1.56;100.00;99560.72;4896221;29;20130;-76
2023/12/24 06:27:57;;;;;;;21.95;11.77;;;;;;;1.62;99.74;99565.66;4913455;29;20052;-74
2023/12/24 06:30:24;;;;;;;16.45;10.52;;;;;;;1.75;99.62;99561.13;4914390;29;20466;-75
2023/12/24 06:32:50;;;;;;;16.88;10.23;;;;;;;1.94;99.88;99566.03;4917354;29;20058;-76
2023/12/24 06:35:17;;;;;;;12.63;8.27;;;;;;;2.16;100.00;99570.69;4913178;29;20051;-76
2023/12/24 06:37:44;;;;;;;11.57;6.75;;;;;;;2.48;100.00;99564.84;4912984;29;20520;-75
2023/12/24 06:40:10;;;;;;;13.85;6.50;;;;;;;2.70;100.00;99570.31;4912776;29;20420;-76
2023/12/24 06:42:37;;;;;;;6.85;4.88;;;;;;;3.07;100.00;99562.19;4913150;29;20155;-75
2023/12/24 06:45:04;;;;;;;6.55;4.38;;;;;;;3.39;100.00;99555.25;4912617;29;20111;-76
2023/12/24 06:47:31;;;;;;;9.18;4.32;;;;;;;3.63;100.00;99554.28;4913008;29;20076;-76
2023/12/24 06:49:57;;;;;;;6.57;4.50;;;;;;;3.79;100.00;99565.53;4912685;29;20139;-76
2023/12/24 06:52:26;;;;;;;7.05;4.45;;;;;;;4.06;100.00;99560.66;4914153;29;20048;-75
2023/12/24 06:54:53;;;;;;;5.47;4.10;;;;;;;4.15;100.00;99559.91;4913296;29;20043;-74
2023/12/24 06:57:20;;;;;;;7.97;4.88;;;;;;;4.34;100.00;99561.97;4913549;29;20481;-75
2023/12/24 06:59:46;;;;;;;8.02;4.95;;;;;;;4.54;100.00;99557.66;4912286;29;20055;-75
2023/12/24 07:02:13;;;;;;;6.40;4.93;;;;;;;4.64;100.00;99561.28;4913472;29;20048;-75
2023/12/24 07:04:40;;;;;;;6.18;4.45;;;;;;;4.72;99.79;99549.91;4912920;29;20048;-75
2023/12/24 07:07:06;;;;;;;7.13;4.40;;;;;;;4.78;99.67;99543.19;4913029;29;20083;-74
2023/12/24 07:09:33;;;;;;;6.10;4.85;;;;;;;4.90;99.49;99539.47;4913943;29;20575;-75
2023/12/24 07:11:59;;;;;;;6.85;5.03;;;;;;;4.97;99.85;99543.41;4912416;29;20060;-74
2023/12/24 07:14:26;;;;;;;9.02;4.90;;;;;;;5.00;99.28;99540.44;4917099;29;20560;-74
2023/12/24 07:16:53;;;;;;;6.60;5.20;;;;;;;5.12;99.38;99542.06;4918328;29;20442;-74
2023/12/24 07:19:19;;;;;;;7.05;5.18;;;;;;;5.17;99.19;99533.66;4906696;29;20051;-76
2023/12/24 07:21:46;;;;;;;9.43;5.93;;;;;;;5.19;98.98;99537.91;4898229;29;20140;-75
2023/12/24 07:24:14;;;;;;;8.10;6.18;;;;;;;5.28;98.94;99531.75;4898984;29;20494;-76
2023/12/24 07:26:42;;;;;;;9.05;5.57;;;;;;;5.33;98.80;99531.34;4898595;29;20056;-75
2023/12/24 07:29:09;;;;;;;9.75;5.72;;;;;;;5.36;98.54;99530.25;4898376;29;20406;-74
2023/12/24 07:31:35;;;;;;;6.50;5.20;;;;;;;5.38;98.80;99525.56;4898704;29;20502;-76
2023/12/24 07:34:02;;;;;;;7.78;5.63;;;;;;;5.35;98.75;99532.06;4898832;29;20514;-77
2023/12/24 07:36:29;;;;;;;7.07;5.25;;;;;;;5.43;98.78;99529.59;4898512;29;20044;-76
2023/12/24 07:38:55;;;;;;;8.25;6.18;;;;;;;5.47;98.68;99535.53;4899167;29;20104;-75
2023/12/24 07:41:26;;;;;;;8.23;6.13;;;;;;;5.52;98.49;99527.94;4899180;29;20140;-76
2023/12/24 07:43:54;;;;;;;7.78;5.78;;;;;;;5.52;98.56;99533.31;4917842;29;20040;-75
2023/12/24 07:46:21;;;;;;;8.57;6.25;;;;;;;5.57;98.50;99526.53;4917399;29;20646;-76
2023/12/24 07:48:47;;;;;;;12.65;6.47;;;;;;;5.63;98.25;99538.63;4887873;29;20475;-75
2023/12/24 07:51:15;;;;;;;11.85;6.28;;;;;;;5.63;98.11;99541.31;4879931;29;20059;-75
2023/12/24 07:53:42;;;;;;;8.20;6.35;;;;;;;5.66;98.19;99532.97;4884504;29;20049;-75
2023/12/24 07:56:10;;;;;;;10.02;7.00;;;;;;;5.70;98.33;99536.22;4898127;29;20565;-75
2023/12/24 07:58:37;;;;;;;9.15;7.13;;;;;;;5.74;98.07;99543.06;4898238;29;20116;-76
2023/12/24 08:01:04;;;;;;;10.27;8.07;;;;;;;5.71;97.96;99536.13;4897709;29;20139;-76
2023/12/24 08:03:31;;;;;;;11.63;8.20;;;;;;;5.72;97.83;99536.97;4897997;29;20052;-75
2023/12/24 08:05:58;;;;;;;11.23;8.65;;;;;;;5.80;97.62;99538.00;4897685;29;20068;-75
2023/12/24 08:08:25;;;;;;;10.25;7.85;;;;;;;5.85;97.91;99535.75;4896019;29;20045;-74
2023/12/24 08:10:52;;;;;;;12.63;8.10;;;;;;;5.82;97.62;99530.63;4898377;29;20060;-76
2023/12/24 08:13:18;;;;;;;11.73;8.82;;;;;;;5.92;97.89;99540.59;4897662;29;20048;-77
2023/12/24 08:15:46;;;;;;;11.88;8.13;;;;;;;5.87;97.81;99532.91;4897623;29;20101;-76
2023/12/24 08:18:13;;;;;;;13.52;8.88;;;;;;;5.90;97.78;99539.88;4897587;29;20044;-76
2023/12/24 08:20:40;;;;;;;11.30;8.93;;;;;;;5.93;97.94;99536.91;4897475;29;20389;-76
2023/12/24 08:23:10;;;;;;;12.40;9.68;;;;;;;5.99;97.76;99533.69;4897338;29;20056;-77
2023/12/24 08:25:37;;;;;;;19.05;10.23;;;;;;;6.02;97.72;99525.34;4896852;29;20045;-76
2023/12/24 08:28:06;;;;;;;16.15;10.15;;;;;;;6.00;97.85;99527.31;4897504;29;20076;-76
2023/12/24 08:30:32;;;;;;;17.20;9.75;;;;;;;6.07;97.38;99529.34;4897482;29;20055;-76
2023/12/24 08:32:59;;;;;;;16.63;10.50;;;;;;;6.07;97.72;99529.34;4897367;29;20131;-76
2023/12/24 08:35:26;;;;;;;13.13;10.10;;;;;;;6.14;97.29;99529.63;4898208;29;20081;-76
2023/12/24 08:37:54;;;;;;;16.20;9.98;;;;;;;6.12;97.50;99537.00;4897785;29;20092;-76
2023/12/24 08:40:22;;;;;;;12.13;9.48;;;;;;;6.12;97.77;99523.53;4896419;29;20053;-76
2023/12/24 08:42:49;;;;;;;13.65;9.13;;;;;;;6.21;97.37;99525.41;4895285;29;20051;-76
2023/12/24 08:45:16;;;;;;;13.98;9.15;;;;;;;6.21;97.27;99528.09;4896811;29;20049;-76
2023/12/24 08:47:42;;;;;;;12.88;9.25;;;;;;;6.10;97.64;99522.81;4906593;29;20078;-76
2023/12/24 08:50:09;;;;;;;23.75;9.25;;;;;;;6.15;97.71;99523.25;4915448;29;20103;-74
2023/12/24 08:52:36;;;;;;;11.30;8.30;;;;;;;6.26;97.45;99523.16;4915396;29;20068;-76
2023/12/24 08:55:03;;;;;;;11.05;8.10;;;;;;;6.30;97.18;99526.44;4897618;29;20052;-76
2023/12/24 08:57:29;;;;;;;16.55;9.23;;;;;;;6.32;96.99;99533.38;4896966;29;20049;-76
2023/12/24 08:59:56;;;;;;;12.50;8.07;;;;;;;6.35;97.04;99525.03;4897241;29;20135;-76
2023/12/24 09:02:23;;;;;;;10.88;7.97;;;;;;;6.36;97.17;99524.03;4897822;29;20068;-76
2023/12/24 09:04:49;;;;;;;10.95;6.43;;;;;;;6.39;97.25;99522.91;4914924;29;20048;-76
2023/12/24 09:07:17;;;;;;;8.50;6.32;;;;;;;6.42;97.11;99518.06;4914917;29;20537;-76
2023/12/24 09:09:43;;;;;;;9.90;6.72;;;;;;;6.41;97.38;99529.84;4914683;29;20048;-77
2023/12/24 09:12:10;;;;;;;10.90;6.20;;;;;;;6.42;97.25;99528.84;4914653;29;20056;-77
2023/12/24 09:14:36;;;;;;;9.77;6.70;;;;;;;6.43;96.90;99519.78;4914852;29;20549;-75
2023/12/24 09:17:03;;;;;;;9.68;6.40;;;;;;;6.51;96.95;99518.25;4915109;29;20056;-77
2023/12/24 09:19:30;;;;;;;8.95;5.85;;;;;;;6.46;97.39;99523.22;4914816;29;20269;-77
2023/12/24 09:21:56;;;;;;;8.40;5.35;;;;;;;6.52;97.14;99525.31;4915073;29;20052;-77
2023/12/24 09:24:25;;;;;;;8.95;4.78;;;;;;;6.49;97.29;99514.84;4914484;29;20051;-76
2023/12/24 09:26:52;;;;;;;5.32;4.10;;;;;;;6.53;96.93;99525.19;4915022;29;20052;-76
2023/12/24 09:29:20;;;;;;;8.23;4.30;;;;;;;6.51;97.12;99520.94;4914523;29;20044;-77
2023/12/24 09:31:48;;;;;;;6.28;3.58;;;;;;;6.59;97.03;99518.41;4914769;29;20082;-76
2023/12/24 09:34:14;;;;;;;5.32;3.30;;;;;;;6.57;96.99;99531.16;4897915;29;20119;-76
2023/12/24 09:36:41;;;;;;;4.80;3.53;;;;;;;6.58;96.84;99527.47;4914590;29;20547;-77
2023/12/24 09:39:08;;;;;;;4.00;2.75;;;;;;;6.65;96.78;99517.84;4915010;29;20104;-76
2023/12/24 09:41:37;;;;;;;6.43;3.20;;;;;;;6.62;97.27;99513.56;4913984;29;20052;-76
2023/12/24 09:44:06;;;;;;;5.20;2.83;;;;;;;6.71;96.90;99528.06;4914292;29;20072;-76
2023/12/24 09:46:33;;;;;;;3.70;2.38;;;;;;;6.68;97.13;99506.78;4914605;29;20055;-76
2023/12/24 09:49:00;;;;;;;3.35;2.47;;;;;;;6.75;96.89;99513.31;4914352;29;20083;-76
2023/12/24 09:51:29;;;;;;;6.55;3.08;;;;;;;6.73;96.86;99504.53;4914187;29;20048;-76
2023/12/24 09:53:56;;;;;;;5.30;2.40;;;;;;;6.77;97.27;99500.56;4914536;29;20060;-76
2023/12/24 09:56:23;;;;;;;3.10;2.17;;;;;;;6.75;97.43;99502.53;4914531;29;20044;-76
2023/12/24 09:58:50;;;;;;;2.40;2.03;;;;;;;6.72;97.60;99500.09;4914484;29;20421;-76
2023/12/24 10:01:19;;;;;;;1.88;1.73;;;;;;;6.79;97.29;99501.25;4914438;29;20131;-76
2023/12/24 10:03:46;;;;;;;4.07;2.20;;;;;;;6.76;97.46;99503.38;4915134;29;20491;-77
2023/12/24 10:06:14;;;;;;;3.97;1.95;;;;;;;6.82;97.46;99492.91;4914807;29;20071;-77
2023/12/24 10:08:41;;;;;;;3.13;2.38;;;;;;;6.87;96.99;99493.31;4914830;29;20426;-77
2023/12/24 10:11:23;;;;;;;4.72;3.30;;;;;;;6.89;97.15;99494.03;4914423;29;20139;-77
2023/12/24 10:14:00;;;;;;;3.85;1.90;;;;;;;6.94;96.76;99486.38;4914789;29;20050;-76
2023/12/24 10:16:27;;;;;;;2.92;1.88;;;;;;;6.98;96.89;99474.28;4914086;29;20516;-75
2023/12/24 10:18:54;;;;;;;1.65;1.50;;;;;;;7.00;96.72;99477.72;4915065;29;20048;-75
2023/12/24 10:21:21;;;;;;;2.42;1.55;;;;;;;6.97;97.34;99474.44;4914455;29;20043;-75
2023/12/24 10:23:48;;;;;;;3.83;1.95;;;;;;;7.00;96.98;99475.03;4913797;29;20083;-75
2023/12/24 10:26:15;;;;;;;4.43;1.33;;;;;;;7.02;97.16;99482.13;4912742;29;20066;-77
2023/12/24 10:28:48;;;;;;;3.08;1.70;;;;;;;7.05;96.82;99476.44;4912968;29;20054;-75
2023/12/24 10:31:18;;;;;;;3.20;1.40;;;;;;;7.11;96.71;99475.88;4913784;29;20493;-76
2023/12/24 10:33:45;;;;;;;1.48;1.23;;;;;;;7.16;96.39;99481.66;4913859;29;20438;-75
2023/12/24 10:36:12;;;;;;;2.08;1.27;;;;;;;7.13;96.31;99477.41;4913509;29;20052;-75
2023/12/24 10:38:38;;;;;;;2.00;1.15;;;;;;;7.11;96.46;99465.06;4913500;29;20048;-76
2023/12/24 10:41:08;;;;;;;3.00;1.20;;;;;;;7.07;96.89;99469.88;4913351;29;20139;-76
2023/12/24 10:43:35;;;;;;;1.23;0.90;;;;;;;7.10;96.89;99474.16;4913675;29;20052;-77
2023/12/24 10:46:02;;;;;;;1.20;0.90;;;;;;;7.11;96.74;99468.63;4914198;29;20489;-77
2023/12/24 10:48:28;;;;;;;5.80;2.28;;;;;;;7.15;96.35;99469.16;4913780;29;20203;-77
2023/12/24 10:50:55;;;;;;;4.82;2.83;;;;;;;7.12;96.81;99466.78;4914360;29;20100;-76
2023/12/24 10:53:22;;;;;;;4.47;2.58;;;;;;;7.19;97.09;99462.47;4917950;29;20043;-77
2023/12/24 10:56:02;;;;;;;2.28;0.70;;;;;;;7.20;96.69;99464.22;4932644;29;20044;-76
2023/12/24 10:58:53;;;;;;;2.58;1.20;;;;;;;7.21;96.35;99460.50;4932464;29;20048;-77
2023/12/24 11:01:20;;;;;;;1.65;1.02;;;;;;;7.21;96.66;99452.44;4932141;29;20111;-75
2023/12/24 11:03:48;;;;;;;5.10;0.82;;;;;;;7.24;96.50;99446.72;4914897;29;20429;-75
2023/12/24 11:06:37;;;;;;;1.45;0.65;;;;;;;7.22;96.81;99443.34;4932658;29;20059;-77
2023/12/24 11:09:24;;;;;;;1.20;0.82;;;;;;;7.21;97.10;99449.72;4931556;29;20079;-76
2023/12/24 11:12:09;;;;;;;1.10;0.80;;;;;;;7.29;96.56;99447.16;4922638;29;20048;-77
2023/12/24 11:14:36;;;;;;;1.00;0.63;;;;;;;7.27;96.77;99438.34;4930078;29;20048;-77
2023/12/24 11:17:05;;;;;;;1.20;0.80;;;;;;;7.33;96.83;99448.56;4932233;29;20071;-76
2023/12/24 11:19:41;;;;;;;1.50;1.00;;;;;;;7.37;96.29;99441.88;4932680;29;20075;-75
2023/12/24 11:22:11;;;;;;;2.25;1.08;;;;;;;7.34;96.81;99434.06;4932450;29;20098;-77
2023/12/24 11:24:42;;;;;;;1.92;1.45;;;;;;;7.40;96.63;99430.81;4932066;29;20044;-77
2023/12/24 11:27:11;;;;;;;1.17;0.80;;;;;;;7.45;96.20;99424.97;4930479;29;20056;-77
2023/12/24 11:29:48;;;;;;;2.28;0.70;;;;;;;7.42;96.44;99431.53;4932702;29;20071;-77
2023/12/24 11:32:36;;;;;;;1.48;0.90;;;;;;;7.46;95.98;99432.91;4931996;29;20063;-76
2023/12/24 11:35:05;;;;;;;3.08;0.80;;;;;;;7.42;96.56;99426.13;4930729;29;20054;-77
2023/12/24 11:37:35;;;;;;;1.13;0.90;;;;;;;7.49;95.91;99424.53;4932567;29;20078;-78
2023/12/24 11:40:08;;;;;;;2.17;1.00;;;;;;;7.47;96.14;99426.56;4932601;29;20131;-75